Terminal Aerodrome Forecast
Issued by NWS Paducah, KY

Home | Current Version | Previous Version | Text Only | Print | Product List | Glossary Off
Versions: 1 2 3 4 5 6 7 8 9 10 11 12 13 14 15 16 17 18 19 20

650
FTUS43 KPAH 120112 AAA
TAFEVV
TAF AMD
KEVV 120112Z 1201/1224 03003KT P6SM FEW060 BKN130
     FM120600 08003KT P6SM OVC070
     FM121015 27002KT 4SM -SN BR BKN015 OVC035
      TEMPO 1211/1212 2SM -SN BR
     FM121600 33006KT P6SM OVC022=

USA.gov is the U.S. government's official web portal to all federal, state and local government web resources and services.